Time;durP1;ratioP1;P1;durP2;ratioP2;P2;SDS_P1;SDS_P2;PMS_P1;PMS_P2;Temp;Humidity;BMP_temperature;BMP_pressure;BME280_temperature;BME280_humidity;BME280_pressure;Samples;Min_cycle;Max_cycle;Signal;HPM_P1;HPM_P2
2023/03/12 00:00:29;;;;;;;9.57;2.75;;;1.70;99.90;;;;;;5107990;27;20070;-80
2023/03/12 00:02:55;;;;;;;9.27;2.92;;;0.30;99.90;;;;;;5092289;27;20054;-81
2023/03/12 00:05:21;;;;;;;7.60;2.80;;;0.30;99.90;;;;;;5126187;27;20447;-80
2023/03/12 00:07:47;;;;;;;7.43;2.50;;;0.40;99.90;;;;;;5127700;27;20051;-81
2023/03/12 00:10:13;;;;;;;4.75;2.15;;;0.40;99.90;;;;;;5127604;27;20054;-80
2023/03/12 00:12:39;;;;;;;5.03;2.72;;;0.40;99.90;;;;;;5127214;27;20504;-81
2023/03/12 00:15:06;;;;;;;9.35;3.33;;;0.40;99.90;;;;;;5092784;27;20051;-81
2023/03/12 00:17:32;;;;;;;5.65;2.15;;;0.40;99.90;;;;;;5126341;27;20043;-81
2023/03/12 00:19:57;;;;;;;5.35;2.13;;;0.40;99.90;;;;;;5108772;27;20402;-81
2023/03/12 00:22:24;;;;;;;8.77;2.08;;;0.40;99.90;;;;;;5091081;27;20051;-81
2023/03/12 00:24:55;;;;;;;7.30;2.25;;;0.40;99.90;;;;;;5127136;27;20082;-81
2023/03/12 00:27:22;;;;;;;4.40;2.00;;;0.40;99.90;;;;;;5108503;27;20078;-81
2023/03/12 00:29:48;;;;;;;5.65;2.17;;;0.30;99.90;;;;;;5107825;27;20062;-81
2023/03/12 00:32:15;;;;;;;8.32;2.17;;;0.30;99.90;;;;;;5127740;27;20058;-81
2023/03/12 00:34:40;;;;;;;4.03;2.13;;;0.30;99.90;;;;;;5125920;27;20084;-81
2023/03/12 00:37:07;;;;;;;5.15;1.98;;;1.30;99.90;;;;;;5091847;27;20043;-81
2023/03/12 00:39:34;;;;;;;10.95;2.75;;;0.20;99.90;;;;;;5107710;27;20043;-81
2023/03/12 00:42:00;;;;;;;6.28;2.60;;;-0.50;99.90;;;;;;5127194;27;20043;-80
2023/03/12 00:44:25;;;;;;;5.53;2.60;;;0.10;99.90;;;;;;5107947;27;20104;-79
2023/03/12 00:46:51;;;;;;;10.00;2.78;;;0.10;99.90;;;;;;5107760;27;20043;-80
2023/03/12 00:49:17;;;;;;;8.45;2.38;;;1.60;99.90;;;;;;5127234;27;20043;-80
2023/03/12 00:51:42;;;;;;;4.15;2.08;;;0.10;99.90;;;;;;5125793;27;20047;-80
2023/03/12 00:54:08;;;;;;;7.13;2.20;;;0.10;99.90;;;;;;5127208;27;20035;-80
2023/03/12 00:56:34;;;;;;;5.88;2.42;;;-0.10;99.90;;;;;;5125804;27;20470;-80
2023/03/12 00:59:00;;;;;;;9.18;2.70;;;0.00;99.90;;;;;;5108143;27;20482;-81
2023/03/12 01:01:26;;;;;;;2.92;1.85;;;-0.10;99.90;;;;;;5107491;27;20140;-81
2023/03/12 01:03:53;;;;;;;6.07;2.13;;;-0.10;99.90;;;;;;5090769;27;20062;-81
2023/03/12 01:06:20;;;;;;;6.68;2.50;;;-0.10;99.90;;;;;;5108954;27;20376;-82
2023/03/12 01:08:45;;;;;;;5.90;2.75;;;-0.10;99.90;;;;;;5125212;27;20209;-81
2023/03/12 01:11:16;;;;;;;4.85;2.28;;;0.00;99.90;;;;;;5127083;27;20256;-81
2023/03/12 01:13:42;;;;;;;9.98;2.97;;;-0.10;99.90;;;;;;5125805;27;20118;-81
2023/03/12 01:16:08;;;;;;;9.10;2.58;;;-0.10;99.90;;;;;;5107280;27;20063;-81
2023/03/12 01:18:34;;;;;;;7.80;2.40;;;-0.10;99.90;;;;;;5107461;27;20043;-81
2023/03/12 01:21:00;;;;;;;6.43;2.85;;;-0.10;99.90;;;;;;5125781;27;20049;-80
2023/03/12 01:23:26;;;;;;;3.47;1.80;;;-0.10;99.90;;;;;;5126688;27;20367;-80
2023/03/12 01:25:54;;;;;;;5.25;2.88;;;-0.20;99.90;;;;;;5125176;27;20041;-81
2023/03/12 01:28:21;;;;;;;5.70;3.13;;;0.60;99.90;;;;;;5126748;27;20131;-81
2023/03/12 01:30:47;;;;;;;5.45;2.45;;;-0.20;99.90;;;;;;5089561;27;20103;-81
2023/03/12 01:33:13;;;;;;;8.52;2.88;;;-0.10;99.90;;;;;;5126013;27;20039;-81
2023/03/12 01:35:40;;;;;;;6.78;3.78;;;-0.10;99.90;;;;;;5125585;27;20047;-81
2023/03/12 01:38:14;;;;;;;11.80;4.18;;;-0.10;99.90;;;;;;5073348;27;20062;-78
2023/03/12 01:40:41;;;;;;;11.43;3.50;;;0.80;99.90;;;;;;5108413;27;20039;-81
2023/03/12 01:43:26;;;;;;;8.07;4.07;;;-0.10;99.90;;;;;;5124523;27;20389;-81
2023/03/12 01:46:10;;;;;;;9.30;3.83;;;-0.10;99.90;;;;;;5125815;27;20043;-81
2023/03/12 01:48:46;;;;;;;6.95;3.72;;;-0.10;99.90;;;;;;5090292;27;20142;-80
2023/03/12 01:51:13;;;;;;;8.32;3.75;;;-0.10;99.90;;;;;;5107315;28;20054;-81
2023/03/12 01:53:43;;;;;;;12.32;6.30;;;-0.10;99.90;;;;;;5090968;27;20106;-80
2023/03/12 01:56:10;;;;;;;17.23;5.70;;;-0.10;99.90;;;;;;5107880;28;20062;-80
2023/03/12 01:58:39;;;;;;;9.85;3.80;;;-0.10;99.90;;;;;;5107765;28;20080;-80
2023/03/12 02:01:05;;;;;;;15.82;6.70;;;-0.10;99.90;;;;;;5090713;28;20051;-79
2023/03/12 02:03:33;;;;;;;8.02;4.18;;;0.00;99.90;;;;;;5107212;28;20418;-79
2023/03/12 02:06:07;;;;;;;12.60;6.75;;;0.00;99.90;;;;;;5108306;28;20120;-78
2023/03/12 02:08:38;;;;;;;13.82;6.43;;;0.10;99.90;;;;;;5090768;28;20048;-79
2023/03/12 02:11:04;;;;;;;17.35;6.57;;;0.20;99.90;;;;;;5093133;28;20039;-80
2023/03/12 02:13:30;;;;;;;7.43;3.45;;;0.30;99.90;;;;;;5093165;28;20180;-80
2023/03/12 02:15:55;;;;;;;6.90;2.70;;;0.40;99.90;;;;;;5074951;28;20150;-79
2023/03/12 02:18:21;;;;;;;7.72;2.63;;;0.50;99.90;;;;;;5073421;28;20058;-80
2023/03/12 02:21:19;;;;;;;7.82;2.30;;;0.50;99.90;;;;;;5107441;28;20054;-79
2023/03/12 02:24:27;;;;;;;5.65;2.50;;;0.60;99.90;;;;;;5107652;28;20090;-80
2023/03/12 02:26:54;;;;;;;8.60;3.17;;;0.70;99.90;;;;;;5045600;27;20107;-80
2023/03/12 02:29:19;;;;;;;5.82;2.75;;;0.80;99.90;;;;;;5111197;27;20085;-79
2023/03/12 02:31:51;;;;;;;8.55;2.60;;;0.80;99.90;;;;;;5110865;27;20462;-79
2023/03/12 02:34:17;;;;;;;7.55;2.55;;;0.90;99.90;;;;;;5110023;27;20043;-79
2023/03/12 02:36:43;;;;;;;6.43;2.45;;;1.00;99.90;;;;;;5077823;27;20617;-80
2023/03/12 02:39:11;;;;;;;6.28;2.45;;;1.00;99.90;;;;;;5109604;27;20544;-80
2023/03/12 02:41:58;;;;;;;8.50;3.10;;;1.10;99.90;;;;;;5110631;27;20043;-79
2023/03/12 02:44:28;;;;;;;8.95;2.78;;;2.60;99.90;;;;;;5093318;27;20047;-79
2023/03/12 02:46:56;;;;;;;13.63;5.38;;;1.20;99.90;;;;;;5092977;27;20073;-79
2023/03/12 02:49:24;;;;;;;9.20;2.88;;;1.20;99.90;;;;;;5111122;27;20111;-79
2023/03/12 02:51:51;;;;;;;5.82;3.22;;;1.60;99.90;;;;;;5109279;27;20103;-79
2023/03/12 02:54:19;;;;;;;8.90;2.97;;;1.30;99.90;;;;;;5110586;27;20043;-79
2023/03/12 02:56:45;;;;;;;8.40;2.80;;;1.30;99.90;;;;;;5093438;27;20042;-80
2023/03/12 02:59:13;;;;;;;4.32;2.17;;;1.40;99.90;;;;;;5076249;27;20433;-79
2023/03/12 03:01:39;;;;;;;4.72;1.92;;;1.40;99.90;;;;;;5093474;27;20036;-80
2023/03/12 03:04:07;;;;;;;5.80;2.40;;;1.40;99.90;;;;;;5109114;27;20085;-80
2023/03/12 03:06:35;;;;;;;2.67;2.03;;;3.00;99.90;;;;;;5110824;27;20122;-79
2023/03/12 03:09:01;;;;;;;5.45;1.70;;;1.50;99.90;;;;;;5092496;27;20130;-79
2023/03/12 03:11:26;;;;;;;3.83;1.50;;;1.50;99.90;;;;;;5093512;27;20129;-79
2023/03/12 03:13:53;;;;;;;6.90;1.48;;;1.50;99.90;;;;;;5109616;27;20469;-79
2023/03/12 03:16:20;;;;;;;5.75;1.83;;;1.70;99.90;;;;;;5110239;27;20069;-80
2023/03/12 03:18:46;;;;;;;10.52;2.05;;;1.50;99.90;;;;;;5109688;27;20047;-80
2023/03/12 03:21:15;;;;;;;8.98;2.47;;;1.60;99.90;;;;;;5092741;27;20088;-80
2023/03/12 03:23:46;;;;;;;7.55;2.03;;;1.50;99.90;;;;;;5093277;27;20043;-80
2023/03/12 03:26:13;;;;;;;7.80;2.15;;;1.50;99.90;;;;;;5108789;27;20047;-80
2023/03/12 03:28:38;;;;;;;6.30;1.88;;;1.60;99.90;;;;;;5075945;27;20047;-80
2023/03/12 03:31:04;;;;;;;4.15;1.90;;;1.60;99.90;;;;;;5075882;27;20043;-80
2023/03/12 03:33:33;;;;;;;6.07;2.22;;;1.50;99.90;;;;;;5092934;27;20054;-80
2023/03/12 03:36:00;;;;;;;7.18;2.15;;;1.50;99.90;;;;;;5092723;27;20043;-80
2023/03/12 03:38:28;;;;;;;5.95;1.70;;;2.70;99.90;;;;;;5074673;27;20502;-80
2023/03/12 03:40:54;;;;;;;4.45;2.15;;;2.60;99.90;;;;;;5128342;27;20130;-80
2023/03/12 03:43:21;;;;;;;5.88;2.13;;;1.50;99.90;;;;;;5108826;27;20142;-80
2023/03/12 03:45:47;;;;;;;6.60;2.17;;;1.50;99.90;;;;;;5109908;27;20061;-80
2023/03/12 03:48:13;;;;;;;5.45;2.17;;;1.50;99.90;;;;;;5126989;27;20039;-80
2023/03/12 03:50:40;;;;;;;10.02;2.10;;;1.50;99.90;;;;;;5092656;27;20074;-80
2023/03/12 03:53:08;;;;;;;4.85;1.85;;;1.50;99.90;;;;;;5128325;27;20040;-80
2023/03/12 03:55:39;;;;;;;2.47;1.83;;;1.50;99.90;;;;;;5091839;27;20043;-80
2023/03/12 03:58:05;;;;;;;6.78;1.90;;;2.80;99.90;;;;;;5109346;27;20051;-80
2023/03/12 04:00:32;;;;;;;10.73;1.65;;;1.50;99.90;;;;;;5091504;27;20036;-81
2023/03/12 04:02:58;;;;;;;7.53;2.15;;;2.20;99.90;;;;;;5111838;27;20373;-80
2023/03/12 04:05:24;;;;;;;6.10;1.85;;;1.40;99.90;;;;;;5091452;27;20070;-80
2023/03/12 04:07:52;;;;;;;4.32;2.13;;;2.10;99.90;;;;;;5075325;27;20051;-80
2023/03/12 04:10:20;;;;;;;6.00;2.05;;;1.40;99.90;;;;;;5091789;27;20046;-80
2023/03/12 04:12:45;;;;;;;5.18;1.83;;;1.40;99.90;;;;;;5090836;27;20591;-80
2023/03/12 04:15:11;;;;;;;5.50;2.55;;;2.50;99.90;;;;;;5109055;27;20038;-80
2023/03/12 04:17:37;;;;;;;5.50;2.33;;;1.40;99.90;;;;;;5107991;27;20047;-80
2023/03/12 04:20:06;;;;;;;3.88;2.08;;;2.70;99.90;;;;;;5127834;27;20043;-80
2023/03/12 04:22:32;;;;;;;5.00;2.10;;;1.30;99.90;;;;;;5108337;27;20453;-80
2023/03/12 04:24:57;;;;;;;7.88;2.08;;;1.30;99.90;;;;;;5127165;27;20035;-80
2023/03/12 04:27:23;;;;;;;5.35;2.17;;;1.30;99.90;;;;;;5127269;27;20047;-80
2023/03/12 04:29:49;;;;;;;5.90;1.70;;;2.30;99.90;;;;;;5125838;27;20122;-82
2023/03/12 04:32:14;;;;;;;5.32;2.47;;;1.30;99.90;;;;;;5127470;27;20035;-81
2023/03/12 04:34:40;;;;;;;3.05;1.77;;;1.40;99.90;;;;;;5125981;27;20039;-80
2023/03/12 04:37:07;;;;;;;3.58;2.08;;;1.30;99.90;;;;;;5108944;27;20043;-80
2023/03/12 04:39:33;;;;;;;3.88;1.60;;;1.40;99.90;;;;;;5107633;27;20039;-80
2023/03/12 04:41:58;;;;;;;4.68;2.30;;;1.40;99.90;;;;;;5108285;27;20039;-80
2023/03/12 04:44:24;;;;;;;5.18;1.83;;;1.40;99.90;;;;;;5108705;27;20097;-79
2023/03/12 04:46:50;;;;;;;5.18;2.17;;;1.90;99.90;;;;;;5107322;27;20134;-80
2023/03/12 04:49:15;;;;;;;5.78;3.20;;;1.40;99.90;;;;;;5091637;27;20096;-80
2023/03/12 04:51:41;;;;;;;6.03;3.40;;;1.50;99.90;;;;;;5089106;27;20062;-80
2023/03/12 04:54:07;;;;;;;6.28;2.75;;;1.60;99.90;;;;;;5074924;27;20051;-80
2023/03/12 04:56:33;;;;;;;11.25;2.28;;;1.50;99.90;;;;;;5125820;27;20076;-80
2023/03/12 04:58:58;;;;;;;7.90;2.55;;;1.40;99.90;;;;;;5091052;27;20130;-80
2023/03/12 05:01:30;;;;;;;6.22;2.30;;;1.50;99.90;;;;;;5126670;27;20062;-80
2023/03/12 05:03:56;;;;;;;7.00;2.97;;;1.50;99.90;;;;;;5089918;27;20047;-80
2023/03/12 05:06:23;;;;;;;5.10;2.80;;;1.40;99.90;;;;;;5091095;27;20047;-80
2023/03/12 05:08:49;;;;;;;8.32;2.50;;;3.00;99.90;;;;;;5107110;27;20069;-80
2023/03/12 05:11:16;;;;;;;5.03;2.30;;;1.40;99.90;;;;;;5108104;27;20049;-80
2023/03/12 05:13:42;;;;;;;4.70;2.47;;;1.40;99.90;;;;;;5125691;27;20417;-79
2023/03/12 05:16:08;;;;;;;12.65;3.35;;;1.40;99.90;;;;;;5107563;27;20039;-79
2023/03/12 05:18:34;;;;;;;9.10;3.45;;;1.40;99.90;;;;;;5107698;27;20078;-80
2023/03/12 05:21:07;;;;;;;7.55;3.33;;;1.40;99.90;;;;;;5125126;27;20028;-79
2023/03/12 05:23:33;;;;;;;7.07;5.13;;;1.40;99.90;;;;;;5108487;27;20489;-80
2023/03/12 05:25:59;;;;;;;7.13;4.07;;;1.40;99.90;;;;;;5125018;27;20062;-80
2023/03/12 05:28:27;;;;;;;12.07;4.05;;;1.40;99.90;;;;;;5126106;27;20099;-79
2023/03/12 05:30:59;;;;;;;5.38;3.75;;;2.10;99.90;;;;;;5125499;27;20078;-79
2023/03/12 05:33:27;;;;;;;9.68;3.50;;;2.90;99.90;;;;;;5107380;27;20054;-79
2023/03/12 05:35:53;;;;;;;11.73;3.50;;;1.30;99.90;;;;;;5126011;27;20043;-79
2023/03/12 05:38:18;;;;;;;8.02;3.58;;;1.30;99.90;;;;;;5124771;27;20099;-79
2023/03/12 05:40:55;;;;;;;9.65;3.30;;;1.30;99.90;;;;;;5107627;27;20031;-79
2023/03/12 05:43:22;;;;;;;5.35;3.05;;;1.30;99.90;;;;;;5124883;27;20039;-79
2023/03/12 05:45:47;;;;;;;6.22;2.95;;;1.30;99.90;;;;;;5126026;27;20050;-79
2023/03/12 05:48:14;;;;;;;3.58;2.25;;;1.30;99.90;;;;;;5106704;28;20043;-79
2023/03/12 05:50:39;;;;;;;6.03;3.08;;;1.30;99.90;;;;;;5125699;27;20046;-79
2023/03/12 05:53:05;;;;;;;7.78;2.95;;;1.30;99.90;;;;;;5126395;27;20133;-79
2023/03/12 05:55:37;;;;;;;6.88;3.40;;;1.30;99.90;;;;;;5124809;27;20404;-81
2023/03/12 05:58:03;;;;;;;10.18;2.80;;;1.30;99.90;;;;;;5125637;27;20130;-79
2023/03/12 06:00:29;;;;;;;7.57;2.78;;;1.40;99.90;;;;;;5124835;28;20039;-78
2023/03/12 06:02:55;;;;;;;7.63;2.70;;;1.40;99.90;;;;;;5094530;27;20126;-78
2023/03/12 06:05:23;;;;;;;7.90;3.13;;;1.40;99.90;;;;;;5113348;27;20126;-79
2023/03/12 06:07:49;;;;;;;5.38;2.40;;;1.70;99.90;;;;;;5113439;27;20133;-79
2023/03/12 06:10:15;;;;;;;7.20;2.20;;;1.50;99.90;;;;;;5097467;27;20054;-79
2023/03/12 06:12:41;;;;;;;6.20;2.42;;;1.50;99.90;;;;;;5113499;27;20058;-79
2023/03/12 06:15:07;;;;;;;5.55;2.25;;;1.50;99.90;;;;;;5114400;27;20071;-79
2023/03/12 06:17:33;;;;;;;6.22;2.38;;;1.60;99.90;;;;;;5131457;27;20108;-79
2023/03/12 06:19:59;;;;;;;9.88;2.45;;;1.50;99.90;;;;;;5096811;27;20038;-79
2023/03/12 06:22:25;;;;;;;6.93;3.03;;;1.60;99.90;;;;;;5113319;27;20056;-78
2023/03/12 06:24:51;;;;;;;3.92;2.05;;;1.60;99.90;;;;;;5114096;27;20425;-78
2023/03/12 06:27:17;;;;;;;6.85;2.47;;;1.60;99.90;;;;;;5114080;27;20046;-79
2023/03/12 06:29:43;;;;;;;9.73;3.00;;;2.60;99.90;;;;;;5113558;27;20066;-79
2023/03/12 06:32:08;;;;;;;8.15;2.97;;;1.60;99.90;;;;;;5132644;27;20493;-79
2023/03/12 06:34:34;;;;;;;11.02;2.85;;;1.60;99.90;;;;;;5131302;27;20039;-78
2023/03/12 06:37:00;;;;;;;5.28;2.92;;;1.70;99.90;;;;;;5132672;27;20038;-78
2023/03/12 06:39:26;;;;;;;6.28;2.97;;;1.70;99.90;;;;;;5131401;27;20046;-79
2023/03/12 06:41:52;;;;;;;6.70;3.08;;;2.20;99.90;;;;;;5132172;27;20083;-79
2023/03/12 06:44:18;;;;;;;6.80;2.75;;;2.80;99.90;;;;;;5113277;27;20157;-78
2023/03/12 06:46:44;;;;;;;10.15;3.25;;;1.70;99.90;;;;;;5131360;27;20054;-78
2023/03/12 06:49:10;;;;;;;9.05;4.10;;;2.10;99.90;;;;;;5096597;27;20047;-79
2023/03/12 06:51:36;;;;;;;8.70;2.50;;;1.70;99.90;;;;;;5131115;27;20047;-78
2023/03/12 06:54:02;;;;;;;7.28;2.60;;;1.70;99.90;;;;;;5131948;27;20047;-78
2023/03/12 06:56:29;;;;;;;9.45;3.00;;;1.70;99.90;;;;;;5113109;27;20118;-79
2023/03/12 06:58:54;;;;;;;8.43;3.08;;;1.70;99.90;;;;;;5113574;27;20164;-79
2023/03/12 07:01:21;;;;;;;7.85;3.17;;;1.80;99.90;;;;;;5113290;27;20403;-79
2023/03/12 07:03:47;;;;;;;7.88;3.13;;;1.90;99.90;;;;;;5112811;27;20073;-80
2023/03/12 07:06:15;;;;;;;5.95;3.28;;;1.80;99.90;;;;;;5097078;27;20046;-79
2023/03/12 07:08:40;;;;;;;9.85;3.53;;;1.80;99.90;;;;;;5078131;27;20054;-78
2023/03/12 07:11:06;;;;;;;4.40;2.72;;;1.80;99.90;;;;;;5132178;27;20074;-79
2023/03/12 07:13:32;;;;;;;6.55;3.05;;;1.20;99.90;;;;;;5093906;28;20086;-79
2023/03/12 07:15:58;;;;;;;4.97;2.45;;;1.90;99.90;;;;;;5110225;27;20502;-79
2023/03/12 07:18:23;;;;;;;5.47;3.20;;;1.90;99.90;;;;;;5109991;27;20549;-79
2023/03/12 07:20:50;;;;;;;7.65;3.42;;;1.90;99.90;;;;;;5109174;27;20106;-79
2023/03/12 07:23:16;;;;;;;8.25;4.10;;;2.20;99.90;;;;;;5094040;27;20051;-79
2023/03/12 07:25:43;;;;;;;14.98;3.97;;;2.00;99.90;;;;;;5108804;27;20053;-79
2023/03/12 07:28:10;;;;;;;8.50;3.42;;;2.00;99.90;;;;;;5109541;27;20046;-79
2023/03/12 07:30:37;;;;;;;9.20;3.38;;;2.40;99.90;;;;;;5109293;27;20082;-79
2023/03/12 07:33:08;;;;;;;6.07;3.65;;;2.00;99.90;;;;;;5092480;27;20039;-79
2023/03/12 07:35:33;;;;;;;8.10;4.25;;;2.00;99.90;;;;;;5110178;27;20043;-79
2023/03/12 07:38:00;;;;;;;11.52;4.05;;;2.00;99.90;;;;;;5075696;27;20567;-80
2023/03/12 07:40:27;;;;;;;8.50;3.60;;;2.00;99.90;;;;;;5093440;27;20472;-80
2023/03/12 07:42:52;;;;;;;6.53;3.95;;;2.00;99.90;;;;;;5108233;27;20134;-80
2023/03/12 07:45:18;;;;;;;13.75;4.80;;;2.00;99.90;;;;;;5109718;27;20130;-80
2023/03/12 07:47:44;;;;;;;10.45;4.00;;;3.50;99.90;;;;;;5108338;27;20110;-81
2023/03/12 07:50:11;;;;;;;10.05;4.95;;;2.00;99.90;;;;;;5075594;27;20039;-80
2023/03/12 07:52:37;;;;;;;10.73;4.57;;;2.00;99.90;;;;;;5092256;27;20039;-80
2023/03/12 07:55:03;;;;;;;9.27;3.92;;;1.90;99.90;;;;;;5108713;27;20096;-80
2023/03/12 07:57:29;;;;;;;6.72;4.38;;;1.90;99.90;;;;;;5093258;27;20482;-81
2023/03/12 07:59:54;;;;;;;9.07;4.35;;;1.80;99.90;;;;;;5090864;27;20035;-81
2023/03/12 08:02:20;;;;;;;12.10;6.88;;;1.80;99.90;;;;;;5075524;27;20094;-83
2023/03/12 08:04:46;;;;;;;9.23;4.82;;;1.80;99.90;;;;;;5107996;27;20422;-81
2023/03/12 08:07:13;;;;;;;10.45;4.72;;;2.60;99.90;;;;;;5094786;27;20047;-84
2023/03/12 08:09:39;;;;;;;10.35;5.40;;;1.70;99.90;;;;;;5110264;27;20047;-83
2023/03/12 08:12:06;;;;;;;13.05;4.97;;;2.30;99.90;;;;;;5092464;27;20088;-82
2023/03/12 08:14:32;;;;;;;10.27;4.88;;;1.70;99.90;;;;;;5109059;27;20130;-81
2023/03/12 08:16:58;;;;;;;10.48;5.20;;;3.40;99.90;;;;;;5091159;27;20138;-81
2023/03/12 08:19:25;;;;;;;11.38;4.78;;;1.70;99.90;;;;;;5075213;27;20125;-82
2023/03/12 08:21:52;;;;;;;11.65;5.07;;;1.70;99.90;;;;;;5074584;27;20503;-81
2023/03/12 08:24:19;;;;;;;11.27;5.32;;;3.10;99.90;;;;;;5109022;27;20150;-81
2023/03/12 08:26:45;;;;;;;13.25;5.18;;;3.20;99.90;;;;;;5108095;27;20059;-81
2023/03/12 08:29:10;;;;;;;10.65;5.60;;;0.80;99.90;;;;;;5107952;27;20053;-81
2023/03/12 08:31:36;;;;;;;9.38;5.05;;;1.60;99.90;;;;;;5074894;27;20039;-82
2023/03/12 08:34:02;;;;;;;9.57;5.60;;;1.60;99.90;;;;;;5106937;27;20058;-83
2023/03/12 08:36:28;;;;;;;13.45;5.45;;;2.10;99.90;;;;;;5091535;27;20048;-83
2023/03/12 08:38:53;;;;;;;10.70;6.30;;;2.90;99.90;;;;;;5073691;27;20107;-81
2023/03/12 08:41:19;;;;;;;17.02;5.95;;;1.60;99.90;;;;;;5091279;27;20039;-81
2023/03/12 08:43:45;;;;;;;10.27;5.65;;;1.70;99.90;;;;;;5108193;27;20035;-80
2023/03/12 08:46:11;;;;;;;11.93;6.95;;;1.70;99.90;;;;;;5107854;27;20047;-79
2023/03/12 08:48:37;;;;;;;12.27;7.43;;;1.80;99.90;;;;;;5108817;27;20386;-79
2023/03/12 08:51:04;;;;;;;10.60;6.78;;;1.70;99.90;;;;;;5090375;27;20046;-79
2023/03/12 08:53:31;;;;;;;11.82;5.80;;;1.80;99.90;;;;;;5091425;27;20031;-80
2023/03/12 08:55:57;;;;;;;9.82;5.93;;;3.50;99.90;;;;;;5073932;27;20398;-83
2023/03/12 08:58:24;;;;;;;8.60;4.85;;;2.20;99.90;;;;;;5090837;27;20113;-80
2023/03/12 09:00:50;;;;;;;10.63;5.90;;;3.40;99.90;;;;;;5090665;27;20043;-79
2023/03/12 09:03:16;;;;;;;14.52;5.63;;;2.00;99.90;;;;;;5107879;27;20418;-81
2023/03/12 09:05:43;;;;;;;8.98;6.30;;;2.00;99.90;;;;;;5107473;27;20122;-79
2023/03/12 09:08:10;;;;;;;12.40;5.70;;;2.10;99.90;;;;;;5106657;27;20490;-79
2023/03/12 09:10:36;;;;;;;11.65;5.47;;;2.10;99.90;;;;;;5091491;27;20686;-79
2023/03/12 09:13:03;;;;;;;12.05;5.40;;;3.40;99.90;;;;;;5106771;27;20050;-79
2023/03/12 09:15:29;;;;;;;9.35;5.13;;;2.10;99.90;;;;;;5108161;27;20394;-79
2023/03/12 09:17:55;;;;;;;8.20;5.45;;;2.00;99.90;;;;;;5107106;27;20046;-79
2023/03/12 09:20:22;;;;;;;14.45;5.95;;;2.00;99.90;;;;;;5107552;27;20106;-81
2023/03/12 09:22:48;;;;;;;9.90;6.03;;;2.30;99.90;;;;;;5091317;27;20043;-80
2023/03/12 09:25:14;;;;;;;9.45;5.30;;;2.00;99.90;;;;;;5089981;27;20091;-80
2023/03/12 09:27:45;;;;;;;11.13;5.13;;;2.00;99.90;;;;;;5108081;27;20100;-79
2023/03/12 09:30:16;;;;;;;9.88;6.25;;;2.00;99.90;;;;;;5106910;27;20050;-79
2023/03/12 09:32:45;;;;;;;15.45;6.43;;;2.00;99.90;;;;;;5090573;27;20047;-80
2023/03/12 09:35:13;;;;;;;11.13;6.03;;;2.00;99.90;;;;;;5090483;27;20047;-80
2023/03/12 09:37:38;;;;;;;9.55;6.45;;;2.30;99.90;;;;;;5106782;27;20438;-80
2023/03/12 09:40:08;;;;;;;9.82;6.63;;;3.10;99.90;;;;;;5090546;27;20039;-79
2023/03/12 09:42:46;;;;;;;17.23;5.85;;;1.90;99.90;;;;;;5089034;27;20535;-80
2023/03/12 09:45:37;;;;;;;14.55;7.07;;;2.00;99.90;;;;;;5107303;27;20051;-80
2023/03/12 09:48:05;;;;;;;12.32;6.90;;;1.90;99.90;;;;;;5107522;27;20466;-79
2023/03/12 09:50:42;;;;;;;13.35;6.75;;;1.90;99.90;;;;;;5089770;28;20047;-77
2023/03/12 09:53:24;;;;;;;13.75;6.82;;;2.00;99.90;;;;;;5090734;27;20047;-77
2023/03/12 09:55:52;;;;;;;11.07;6.72;;;2.00;99.90;;;;;;5089785;28;20129;-77
2023/03/12 09:58:25;;;;;;;9.02;5.93;;;3.10;99.90;;;;;;5089810;27;20043;-77
2023/03/12 10:00:59;;;;;;;10.10;7.10;;;3.50;99.90;;;;;;5106915;28;20047;-77
2023/03/12 10:03:35;;;;;;;;;;;2.10;99.90;;;;;;5090177;28;20096;-78
2023/03/12 10:06:12;;;;;;;10.30;5.45;;;2.10;99.90;;;;;;5107255;28;19920;-78
2023/03/12 10:08:46;;;;;;;15.95;6.97;;;2.10;99.90;;;;;;5124256;28;20076;-77
2023/03/12 10:11:23;;;;;;;10.82;5.80;;;2.10;99.90;;;;;;5125486;28;20043;-78
2023/03/12 10:14:20;;;;;;;7.80;5.18;;;2.20;99.90;;;;;;5106961;28;20058;-78
2023/03/12 10:17:02;;;;;;;7.28;5.35;;;2.20;99.90;;;;;;5088928;28;20051;-79
2023/03/12 10:19:51;;;;;;;9.68;5.57;;;2.20;99.90;;;;;;5106776;28;20195;-77
2023/03/12 10:22:49;;;;;;;10.45;6.20;;;2.20;99.90;;;;;;5123148;28;20061;-78
2023/03/12 10:25:24;;;;;;;13.20;5.90;;;2.30;99.90;;;;;;5105867;28;20538;-79
2023/03/12 10:27:49;;;;;;;6.65;5.25;;;2.30;99.90;;;;;;5107246;28;20403;-79
2023/03/12 10:30:24;;;;;;;9.85;5.82;;;2.40;99.90;;;;;;5106510;28;20434;-79
2023/03/12 10:32:58;;;;;;;11.18;5.68;;;2.50;99.90;;;;;;5107273;28;20057;-79
2023/03/12 10:35:26;;;;;;;11.10;5.55;;;2.70;99.90;;;;;;5107233;28;20574;-78
2023/03/12 10:37:58;;;;;;;10.82;6.25;;;3.80;99.90;;;;;;5106082;28;20100;-77
2023/03/12 10:40:35;;;;;;;8.32;6.15;;;2.70;99.90;;;;;;5089796;28;20054;-78
2023/03/12 10:43:02;;;;;;;6.05;5.10;;;3.40;99.90;;;;;;5106154;28;20367;-78
2023/03/12 10:45:31;;;;;;;8.48;5.72;;;2.50;99.90;;;;;;5106506;28;20055;-78
2023/03/12 10:48:10;;;;;;;7.68;6.07;;;2.60;99.90;;;;;;5106475;27;20508;-79
2023/03/12 10:50:38;;;;;;;10.23;6.55;;;2.60;99.90;;;;;;5091875;27;20536;-78
2023/03/12 10:53:25;;;;;;;7.32;5.22;;;2.70;99.90;;;;;;5110606;27;20043;-79
2023/03/12 10:56:08;;;;;;;8.93;5.47;;;2.70;99.90;;;;;;5109118;27;20047;-79
2023/03/12 10:58:48;;;;;;;7.57;5.43;;;2.80;99.90;;;;;;5110068;27;20043;-80
2023/03/12 11:01:14;;;;;;;11.68;8.20;;;2.80;99.90;;;;;;5110925;27;20673;-79
2023/03/12 11:03:40;;;;;;;10.20;5.70;;;2.90;99.90;;;;;;5109682;27;20031;-79
2023/03/12 11:06:09;;;;;;;8.10;6.25;;;2.90;99.90;;;;;;5076449;27;20059;-80
2023/03/12 11:08:36;;;;;;;7.43;6.30;;;2.90;99.90;;;;;;5108790;27;20043;-79
2023/03/12 11:11:04;;;;;;;13.85;6.93;;;2.90;99.90;;;;;;5092930;27;20088;-80
2023/03/12 11:13:33;;;;;;;9.80;6.95;;;2.90;99.90;;;;;;5109966;27;20047;-80
2023/03/12 11:16:26;;;;;;;11.93;6.93;;;2.90;99.90;;;;;;5109576;27;20062;-78
2023/03/12 11:19:00;;;;;;;8.85;7.03;;;3.60;99.90;;;;;;5093558;27;20043;-79
2023/03/12 11:21:27;;;;;;;10.10;6.57;;;3.00;99.90;;;;;;5092418;27;20086;-79
2023/03/12 11:23:56;;;;;;;15.88;7.65;;;3.30;99.90;;;;;;5110134;27;20043;-79
2023/03/12 11:26:32;;;;;;;11.52;6.90;;;3.10;99.90;;;;;;5109966;27;20402;-79
2023/03/12 11:29:02;;;;;;;10.02;6.70;;;3.10;99.90;;;;;;5109532;27;20074;-79
2023/03/12 11:31:33;;;;;;;14.70;6.95;;;3.20;99.90;;;;;;5094033;27;20459;-80
2023/03/12 11:34:13;;;;;;;11.63;7.25;;;3.20;99.90;;;;;;5091720;27;20082;-79
2023/03/12 11:36:55;;;;;;;11.40;7.45;;;3.20;99.90;;;;;;5092899;27;20051;-79
2023/03/12 11:39:50;;;;;;;13.35;7.63;;;3.30;99.90;;;;;;5109446;27;20414;-78
2023/03/12 11:42:27;;;;;;;9.43;6.70;;;3.30;99.90;;;;;;5078461;27;20097;-81
2023/03/12 11:45:18;;;;;;;12.27;7.18;;;3.40;99.90;;;;;;5109905;27;20473;-81
2023/03/12 11:48:05;;;;;;;8.65;6.90;;;3.40;99.90;;;;;;5108987;27;20114;-79
2023/03/12 11:51:05;;;;;;;9.80;7.13;;;3.40;99.90;;;;;;5109063;27;20050;-79
2023/03/12 11:54:06;;;;;;;17.42;7.32;;;3.50;99.90;;;;;;5109615;27;20449;-78
2023/03/12 11:56:35;;;;;;;8.85;6.25;;;3.50;99.90;;;;;;5085529;27;20058;-80
2023/03/12 11:59:25;;;;;;;10.13;7.03;;;3.60;99.90;;;;;;5108642;27;20137;-82
2023/03/12 12:02:02;;;;;;;10.95;6.68;;;3.70;99.90;;;;;;5092344;27;20062;-81
2023/03/12 12:04:41;;;;;;;8.30;6.55;;;3.80;99.90;;;;;;5108641;27;20391;-80
2023/03/12 12:07:16;;;;;;;11.60;7.53;;;3.90;99.90;;;;;;5075172;27;20563;-81
2023/03/12 12:10:10;;;;;;;8.85;6.78;;;3.90;99.90;;;;;;5127837;27;20251;-83
2023/03/12 12:12:55;;;;;;;10.43;7.18;;;4.00;99.90;;;;;;5090710;27;20521;-81
2023/03/12 12:15:35;;;;;;;11.30;7.28;;;4.10;99.90;;;;;;5108886;27;20042;-79
2023/03/12 12:18:25;;;;;;;12.57;7.03;;;4.10;99.90;;;;;;5108498;27;20099;-81
2023/03/12 12:21:00;;;;;;;12.80;8.32;;;4.20;99.90;;;;;;5108043;27;20436;-80
2023/03/12 12:23:51;;;;;;;10.38;6.95;;;4.30;99.90;;;;;;5091883;27;20182;-79
2023/03/12 12:26:22;;;;;;;12.10;7.43;;;4.40;99.90;;;;;;5091143;27;20051;-78
2023/03/12 12:28:56;;;;;;;10.05;7.93;;;4.80;99.90;;;;;;5108371;27;20039;-79
2023/03/12 12:31:50;;;;;;;12.10;7.88;;;4.60;99.90;;;;;;5109639;27;20107;-80
2023/03/12 12:34:53;;;;;;;12.93;8.68;;;4.70;99.90;;;;;;5090160;27;20699;-78
2023/03/12 12:37:36;;;;;;;8.02;5.85;;;4.90;99.90;;;;;;5091505;27;20096;-81
2023/03/12 12:40:09;;;;;;;11.73;7.90;;;5.00;99.90;;;;;;5108926;27;20054;-81
2023/03/12 12:42:45;;;;;;;14.55;8.77;;;5.10;99.90;;;;;;5107965;27;20058;-78
2023/03/12 12:45:13;;;;;;;16.20;8.40;;;5.10;99.90;;;;;;5108225;27;20079;-79
2023/03/12 12:47:45;;;;;;;13.52;7.72;;;5.40;99.90;;;;;;5107909;27;20429;-79
2023/03/12 12:50:17;;;;;;;13.18;8.57;;;6.60;99.90;;;;;;5108185;27;20047;-80
2023/03/12 12:52:44;;;;;;;13.68;9.60;;;5.50;99.90;;;;;;5108691;27;20065;-79
2023/03/12 12:55:24;;;;;;;13.25;8.18;;;6.40;99.90;;;;;;5107356;27;20373;-80
2023/03/12 12:57:59;;;;;;;15.23;8.98;;;5.70;99.90;;;;;;5091094;27;20133;-80
2023/03/12 13:00:59;;;;;;;15.10;8.23;;;5.90;99.90;;;;;;5090443;27;20158;-79
2023/03/12 13:03:26;;;;;;;19.73;9.07;;;6.00;99.90;;;;;;5063595;27;20062;-80
2023/03/12 13:05:51;;;;;;;15.32;8.65;;;6.10;99.90;;;;;;5104583;28;20129;-81